Time;durP1;ratioP1;P1;durP2;ratioP2;P2;SDS_P1;SDS_P2;PMS_P1;PMS_P2;Temp;Humidity;BMP_temperature;BMP_pressure;BME280_temperature;BME280_humidity;BME280_pressure;Samples;Min_cycle;Max_cycle;Signal;HPM_P1;HPM_P2
2022/07/06 00:01:17;;;;;;;5.63;0.80;;;14.60;99.90;;;;;;5067454;28;20045;-64
2022/07/06 00:03:42;;;;;;;2.97;0.73;;;14.60;99.90;;;;;;5068617;28;20052;-65
2022/07/06 00:06:08;;;;;;;1.60;0.70;;;14.60;99.90;;;;;;5066484;28;20055;-65
2022/07/06 00:08:34;;;;;;;1.65;0.73;;;14.60;99.90;;;;;;5067038;28;20403;-65
2022/07/06 00:11:00;;;;;;;2.92;0.73;;;14.50;99.90;;;;;;5067644;28;20154;-65
2022/07/06 00:13:27;;;;;;;1.73;0.65;;;14.50;99.90;;;;;;5068023;28;20044;-64
2022/07/06 00:15:52;;;;;;;2.42;0.70;;;14.50;99.90;;;;;;5066735;28;20250;-65
2022/07/06 00:18:18;;;;;;;5.18;1.02;;;14.50;99.90;;;;;;5067599;28;20072;-65
2022/07/06 00:20:44;;;;;;;2.30;0.55;;;14.50;99.90;;;;;;5066983;28;20085;-65
2022/07/06 00:23:09;;;;;;;1.40;0.52;;;14.50;99.90;;;;;;5081871;28;20484;-65
2022/07/06 00:25:35;;;;;;;1.75;0.60;;;14.40;99.90;;;;;;5067486;28;20032;-64
2022/07/06 00:28:01;;;;;;;3.00;0.73;;;14.40;99.90;;;;;;5066945;28;20044;-64
2022/07/06 00:30:26;;;;;;;2.03;0.77;;;14.40;99.90;;;;;;5066928;28;20045;-65
2022/07/06 00:32:52;;;;;;;4.22;0.80;;;14.40;99.90;;;;;;5067118;28;20543;-65
2022/07/06 00:35:18;;;;;;;5.50;0.77;;;14.40;99.90;;;;;;5067039;28;20037;-64
2022/07/06 00:37:43;;;;;;;1.70;0.60;;;14.30;99.90;;;;;;5067111;28;20713;-65
2022/07/06 00:40:09;;;;;;;3.38;1.20;;;14.30;99.90;;;;;;5066932;28;20093;-65
2022/07/06 00:42:42;;;;;;;1.90;1.10;;;14.30;99.90;;;;;;5067234;28;20049;-65
2022/07/06 00:45:09;;;;;;;4.57;1.13;;;14.40;99.90;;;;;;5066665;28;20087;-65
2022/07/06 00:47:35;;;;;;;3.55;0.88;;;14.30;99.90;;;;;;5066907;28;20102;-65
2022/07/06 00:53:00;;;;;;;4.35;0.68;;;14.30;99.90;;;;;;5067050;28;20057;-65
2022/07/06 00:55:29;;;;;;;1.92;0.80;;;14.30;99.90;;;;;;5065777;28;20047;-65
2022/07/06 00:57:56;;;;;;;3.70;1.27;;;14.20;99.90;;;;;;5065818;28;20076;-64
2022/07/06 01:00:25;;;;;;;1.20;0.93;;;14.20;99.90;;;;;;5066947;28;20480;-64
2022/07/06 01:02:51;;;;;;;1.35;0.90;;;14.20;99.90;;;;;;5064900;28;20047;-65
2022/07/06 01:05:18;;;;;;;10.05;0.82;;;14.10;99.90;;;;;;5066254;28;20569;-65
2022/07/06 01:07:47;;;;;;;2.50;1.00;;;14.20;99.90;;;;;;5067099;28;20080;-65
2022/07/06 01:10:14;;;;;;;2.92;0.88;;;14.20;99.90;;;;;;5067307;28;20105;-64
2022/07/06 01:12:41;;;;;;;4.20;1.02;;;14.20;99.90;;;;;;5064731;28;20458;-65
2022/07/06 01:15:11;;;;;;;5.18;0.93;;;14.20;99.90;;;;;;5066149;28;20090;-65
2022/07/06 01:17:39;;;;;;;2.75;0.82;;;14.20;99.90;;;;;;5066432;28;20515;-64
2022/07/06 01:20:15;;;;;;;4.15;1.23;;;14.20;99.90;;;;;;5063945;28;20483;-65
2022/07/06 01:22:41;;;;;;;1.23;0.60;;;14.20;99.90;;;;;;5066288;28;20051;-65
2022/07/06 01:25:07;;;;;;;1.42;0.70;;;14.20;99.90;;;;;;5065421;28;20051;-65
2022/07/06 01:27:38;;;;;;;3.97;0.93;;;14.20;99.90;;;;;;5082146;28;20048;-64
2022/07/06 01:30:06;;;;;;;4.47;0.95;;;14.30;99.90;;;;;;5066045;28;20044;-65
2022/07/06 01:32:32;;;;;;;3.50;1.00;;;14.30;99.90;;;;;;5065706;28;20051;-65
2022/07/06 01:34:58;;;;;;;6.57;1.17;;;14.30;99.90;;;;;;5065974;28;20403;-65
2022/07/06 01:37:23;;;;;;;2.20;0.85;;;14.40;99.90;;;;;;5066268;28;20048;-65
2022/07/06 01:39:49;;;;;;;1.98;0.50;;;14.40;99.90;;;;;;5064966;28;20115;-64
2022/07/06 01:42:14;;;;;;;2.50;0.60;;;14.40;99.90;;;;;;5066655;28;20279;-65
2022/07/06 01:44:40;;;;;;;2.58;0.70;;;14.40;99.90;;;;;;5066123;28;20065;-65
2022/07/06 01:47:06;;;;;;;2.00;0.80;;;14.40;99.90;;;;;;5064785;28;20219;-65
2022/07/06 01:49:31;;;;;;;2.45;0.60;;;14.40;99.90;;;;;;5066204;28;20162;-65
2022/07/06 01:51:57;;;;;;;1.50;0.55;;;14.50;99.90;;;;;;5064267;28;20503;-65
2022/07/06 01:54:22;;;;;;;2.20;0.85;;;14.40;99.90;;;;;;5065368;28;20136;-65
2022/07/06 01:56:48;;;;;;;2.30;0.77;;;14.50;99.90;;;;;;5065237;28;20060;-65
2022/07/06 01:59:13;;;;;;;13.02;1.20;;;14.40;99.90;;;;;;5066298;28;20055;-64
2022/07/06 02:01:39;;;;;;;2.42;0.82;;;14.40;99.90;;;;;;5064906;28;20083;-65
2022/07/06 02:04:05;;;;;;;5.22;0.80;;;14.40;99.90;;;;;;5065747;28;20319;-65
2022/07/06 02:06:30;;;;;;;3.35;0.90;;;14.30;99.90;;;;;;5065898;28;20052;-65
2022/07/06 02:08:56;;;;;;;2.72;0.85;;;14.30;99.90;;;;;;5063507;28;20395;-65
2022/07/06 02:11:21;;;;;;;2.50;1.05;;;14.30;99.90;;;;;;5064290;28;20064;-64
2022/07/06 02:13:47;;;;;;;3.58;0.80;;;14.30;99.90;;;;;;5065454;28;20120;-64
2022/07/06 02:16:13;;;;;;;6.43;1.15;;;14.30;99.90;;;;;;5064351;28;20059;-65
2022/07/06 02:18:39;;;;;;;2.40;0.80;;;14.30;99.90;;;;;;5065638;28;20096;-65
2022/07/06 02:21:05;;;;;;;6.05;1.25;;;14.30;99.90;;;;;;5065676;28;20777;-65
2022/07/06 02:23:31;;;;;;;7.10;1.50;;;14.30;99.90;;;;;;5065093;28;20051;-65
2022/07/06 02:25:56;;;;;;;2.72;1.00;;;14.20;99.90;;;;;;5063832;28;20198;-65
2022/07/06 02:28:22;;;;;;;4.07;1.30;;;14.10;99.90;;;;;;5064958;28;20044;-65
2022/07/06 02:30:47;;;;;;;2.08;0.98;;;14.10;99.90;;;;;;5065174;28;20040;-65
2022/07/06 02:33:13;;;;;;;1.75;0.90;;;14.00;99.90;;;;;;5066006;28;20055;-65
2022/07/06 02:35:42;;;;;;;3.83;1.00;;;13.90;99.90;;;;;;5064929;28;20044;-65
2022/07/06 02:38:08;;;;;;;3.67;1.20;;;13.90;99.90;;;;;;5065151;28;20052;-65
2022/07/06 02:40:33;;;;;;;2.53;0.70;;;13.80;99.90;;;;;;5065430;28;20045;-64
2022/07/06 02:42:59;;;;;;;5.10;0.90;;;13.80;99.90;;;;;;5064508;28;20534;-65
2022/07/06 02:45:24;;;;;;;1.42;0.98;;;13.70;99.90;;;;;;5065407;28;20089;-65
2022/07/06 02:47:50;;;;;;;2.88;1.00;;;13.70;99.90;;;;;;5063809;28;20449;-65
2022/07/06 02:50:17;;;;;;;4.80;1.17;;;13.50;99.90;;;;;;5065305;28;20090;-65
2022/07/06 02:52:42;;;;;;;3.38;0.85;;;13.50;99.90;;;;;;5065877;28;20076;-64
2022/07/06 02:55:08;;;;;;;3.55;0.93;;;13.40;99.90;;;;;;5064978;28;20137;-64
2022/07/06 02:57:34;;;;;;;2.78;0.90;;;13.40;99.90;;;;;;5064905;28;20083;-65
2022/07/06 02:59:59;;;;;;;2.03;0.80;;;13.40;99.90;;;;;;5063545;28;20052;-64
2022/07/06 03:02:25;;;;;;;2.30;0.80;;;13.40;99.90;;;;;;5065539;28;20032;-65
2022/07/06 03:04:50;;;;;;;4.03;0.73;;;13.30;99.90;;;;;;5064276;28;20700;-65
2022/07/06 03:07:16;;;;;;;1.45;0.85;;;13.30;99.90;;;;;;5064631;28;20041;-64
2022/07/06 03:09:42;;;;;;;2.88;1.00;;;13.20;99.90;;;;;;5068404;28;20049;-64
2022/07/06 03:12:08;;;;;;;3.53;0.95;;;13.20;99.90;;;;;;5068174;28;20041;-65
2022/07/06 03:14:34;;;;;;;5.43;0.80;;;13.10;99.90;;;;;;5068713;28;20048;-65
2022/07/06 03:17:00;;;;;;;2.25;1.00;;;13.10;99.90;;;;;;5068663;28;20090;-64
2022/07/06 03:19:25;;;;;;;3.50;0.90;;;13.00;99.90;;;;;;5068034;28;20493;-65
2022/07/06 03:21:51;;;;;;;2.00;1.15;;;12.90;99.90;;;;;;5068395;28;20045;-64
2022/07/06 03:24:17;;;;;;;5.40;1.10;;;12.90;99.90;;;;;;5068827;28;20371;-65
2022/07/06 03:26:42;;;;;;;2.00;0.70;;;12.80;99.90;;;;;;5068904;28;20508;-65
2022/07/06 03:29:08;;;;;;;2.53;0.90;;;12.80;99.90;;;;;;5067025;28;20048;-65
2022/07/06 03:31:35;;;;;;;1.58;0.60;;;12.70;99.90;;;;;;5067803;28;20228;-65
2022/07/06 03:34:00;;;;;;;2.35;0.73;;;12.70;99.90;;;;;;5068365;28;20067;-65
2022/07/06 03:36:26;;;;;;;2.70;0.82;;;12.60;99.90;;;;;;5068472;28;20041;-65
2022/07/06 03:38:51;;;;;;;2.65;0.95;;;12.60;99.90;;;;;;5067211;28;20713;-64
2022/07/06 03:41:17;;;;;;;3.28;1.10;;;12.60;99.90;;;;;;5067207;28;20056;-64
2022/07/06 03:43:42;;;;;;;2.25;0.68;;;12.50;99.90;;;;;;5068805;28;20045;-64
2022/07/06 03:46:08;;;;;;;2.35;0.70;;;12.60;99.90;;;;;;5067368;28;20483;-64
2022/07/06 03:48:34;;;;;;;1.95;0.75;;;12.60;99.90;;;;;;5068217;28;20052;-65
2022/07/06 03:50:59;;;;;;;2.08;0.68;;;12.60;99.90;;;;;;5068054;28;20045;-65
2022/07/06 03:53:25;;;;;;;3.80;0.73;;;12.50;99.90;;;;;;5067527;28;20045;-65
2022/07/06 03:58:34;;;;;;;7.50;1.02;;;12.50;99.90;;;;;;5067981;28;20140;-64
2022/07/06 04:01:00;;;;;;;3.47;0.80;;;12.50;99.90;;;;;;5067090;28;20135;-64
2022/07/06 04:03:26;;;;;;;1.90;0.77;;;12.60;99.90;;;;;;5067960;28;20645;-64
2022/07/06 04:05:51;;;;;;;4.10;1.00;;;12.60;99.90;;;;;;5067495;28;20044;-64
2022/07/06 04:08:17;;;;;;;3.75;0.95;;;12.60;99.90;;;;;;5067000;28;20052;-64
2022/07/06 04:10:43;;;;;;;2.72;0.57;;;12.70;99.90;;;;;;5068279;28;20044;-64
2022/07/06 04:13:08;;;;;;;2.28;1.02;;;12.80;99.90;;;;;;5068247;28;20166;-65
2022/07/06 04:15:34;;;;;;;2.20;0.50;;;12.80;99.90;;;;;;5066068;28;20052;-65
2022/07/06 04:17:59;;;;;;;1.48;0.63;;;12.80;99.90;;;;;;5067519;28;20051;-64
2022/07/06 04:20:28;;;;;;;2.60;0.80;;;12.90;99.90;;;;;;5067199;28;20556;-65
2022/07/06 04:22:53;;;;;;;3.22;0.50;;;12.90;99.90;;;;;;5066650;28;20526;-65
2022/07/06 04:25:19;;;;;;;2.92;0.85;;;12.90;99.90;;;;;;5067669;28;20112;-64
2022/07/06 04:27:45;;;;;;;2.47;0.50;;;13.00;99.90;;;;;;5067611;28;20051;-64
2022/07/06 04:30:11;;;;;;;1.27;0.35;;;13.00;99.90;;;;;;5067257;28;20029;-65
2022/07/06 04:32:37;;;;;;;3.80;0.63;;;13.00;99.90;;;;;;5067424;28;20065;-65
2022/07/06 04:35:04;;;;;;;3.35;0.77;;;13.10;99.90;;;;;;5066302;28;20044;-65
2022/07/06 04:37:30;;;;;;;2.28;0.35;;;13.10;99.90;;;;;;5068095;28;20048;-64
2022/07/06 04:39:56;;;;;;;3.33;0.70;;;13.20;99.90;;;;;;5067072;28;20055;-64
2022/07/06 04:42:21;;;;;;;1.77;0.75;;;13.30;99.90;;;;;;5066469;28;20060;-65
2022/07/06 04:44:47;;;;;;;3.00;0.85;;;13.30;99.90;;;;;;5066596;28;20051;-65
2022/07/06 04:47:13;;;;;;;3.88;0.73;;;13.30;99.90;;;;;;5067830;28;20496;-64
2022/07/06 04:49:39;;;;;;;1.25;0.30;;;13.40;99.90;;;;;;5066327;28;20053;-64
2022/07/06 04:52:05;;;;;;;3.47;0.60;;;13.40;99.90;;;;;;5066592;28;20115;-64
2022/07/06 04:54:31;;;;;;;1.92;0.50;;;13.50;99.90;;;;;;5066868;28;20068;-65
2022/07/06 04:56:57;;;;;;;4.00;0.90;;;13.50;99.90;;;;;;5065715;28;20403;-65
2022/07/06 04:59:23;;;;;;;3.03;0.70;;;13.60;99.90;;;;;;5066935;28;20469;-64
2022/07/06 05:01:48;;;;;;;5.13;1.00;;;13.60;99.90;;;;;;5066546;28;20048;-65
2022/07/06 05:04:14;;;;;;;6.03;0.82;;;13.60;99.90;;;;;;5066742;28;20055;-65
2022/07/06 05:06:40;;;;;;;3.03;0.60;;;13.70;99.90;;;;;;5048512;28;20059;-64
2022/07/06 05:09:06;;;;;;;4.28;0.88;;;13.70;99.90;;;;;;5066307;28;20043;-65
2022/07/06 05:11:31;;;;;;;3.92;0.63;;;13.70;99.90;;;;;;5065971;28;20078;-65
2022/07/06 05:13:57;;;;;;;2.00;0.82;;;13.70;99.90;;;;;;5066436;28;20048;-65
2022/07/06 05:16:23;;;;;;;2.22;0.82;;;13.60;99.90;;;;;;5067010;28;20037;-64
2022/07/06 05:18:49;;;;;;;3.28;0.60;;;13.60;99.90;;;;;;5063961;28;20084;-65
2022/07/06 05:21:15;;;;;;;2.10;0.93;;;13.60;99.90;;;;;;5067398;28;20390;-65
2022/07/06 05:23:40;;;;;;;3.05;0.70;;;13.60;99.90;;;;;;5065001;28;20376;-65
2022/07/06 05:26:06;;;;;;;3.53;0.75;;;13.50;99.90;;;;;;5065483;28;20176;-65
2022/07/06 05:28:31;;;;;;;2.95;1.23;;;13.60;99.90;;;;;;5066181;28;20056;-65
2022/07/06 05:30:57;;;;;;;5.20;0.98;;;13.50;99.90;;;;;;5065604;28;20041;-64
2022/07/06 05:33:23;;;;;;;0.93;0.47;;;13.50;99.90;;;;;;5065179;28;20052;-64
2022/07/06 05:35:48;;;;;;;3.80;0.80;;;13.50;99.90;;;;;;5065879;28;20044;-65
2022/07/06 05:38:14;;;;;;;1.45;0.43;;;13.60;99.90;;;;;;5065979;28;20076;-64
2022/07/06 05:40:39;;;;;;;5.07;0.85;;;13.70;99.90;;;;;;5066458;28;20036;-65
2022/07/06 05:43:05;;;;;;;2.15;1.05;;;13.70;99.90;;;;;;5065919;28;20106;-65
2022/07/06 05:45:31;;;;;;;3.03;1.00;;;13.70;99.90;;;;;;5064093;28;20529;-65
2022/07/06 05:50:40;;;;;;;6.38;1.10;;;13.80;99.90;;;;;;5065971;28;20487;-64
2022/07/06 05:53:07;;;;;;;5.47;0.65;;;13.90;99.90;;;;;;5064866;28;20059;-64
2022/07/06 05:55:32;;;;;;;2.13;0.63;;;13.90;99.90;;;;;;5066041;28;20044;-64
2022/07/06 05:57:58;;;;;;;3.53;0.75;;;14.00;99.90;;;;;;5065792;28;20364;-65
2022/07/06 06:00:25;;;;;;;1.63;0.68;;;14.00;99.90;;;;;;5065167;28;20057;-65
2022/07/06 06:02:52;;;;;;;4.78;0.88;;;14.00;99.90;;;;;;5065539;28;20080;-64
2022/07/06 06:05:18;;;;;;;3.35;0.73;;;14.00;99.90;;;;;;5065853;28;20392;-64
2022/07/06 06:07:48;;;;;;;2.83;0.60;;;14.10;99.90;;;;;;5065448;28;20119;-65
2022/07/06 06:10:15;;;;;;;6.25;1.13;;;14.10;99.90;;;;;;5066791;28;20097;-65
2022/07/06 06:12:41;;;;;;;2.63;0.65;;;14.10;99.90;;;;;;5065695;28;20415;-64
2022/07/06 06:15:08;;;;;;;2.92;0.98;;;14.10;99.90;;;;;;5064586;28;20091;-65
2022/07/06 06:17:35;;;;;;;2.45;0.90;;;14.10;99.90;;;;;;5065757;28;20106;-64
2022/07/06 06:20:00;;;;;;;3.33;0.50;;;14.20;99.90;;;;;;5065097;28;20127;-65
2022/07/06 06:22:26;;;;;;;3.90;0.73;;;14.20;99.90;;;;;;5064736;28;20559;-64
2022/07/06 06:24:52;;;;;;;2.08;0.60;;;14.20;99.90;;;;;;5065242;28;20032;-65
2022/07/06 06:27:18;;;;;;;4.32;1.15;;;14.30;99.90;;;;;;5065722;28;20127;-64
2022/07/06 06:29:45;;;;;;;4.07;0.70;;;14.40;99.90;;;;;;5065602;28;20483;-64
2022/07/06 06:32:11;;;;;;;8.35;1.05;;;14.40;99.90;;;;;;5065298;28;20450;-65
2022/07/06 06:34:38;;;;;;;3.40;0.40;;;14.40;99.90;;;;;;5064642;28;20041;-64
2022/07/06 06:37:03;;;;;;;5.90;1.33;;;14.50;99.90;;;;;;5065152;28;20596;-64
2022/07/06 06:39:29;;;;;;;4.20;0.70;;;14.60;99.90;;;;;;5065662;28;20127;-65
2022/07/06 06:41:55;;;;;;;4.70;0.93;;;14.80;99.90;;;;;;5064381;28;20084;-65
2022/07/06 06:44:23;;;;;;;4.45;0.60;;;15.00;99.90;;;;;;5068835;28;20119;-64
2022/07/06 06:46:54;;;;;;;2.28;0.45;;;15.10;99.90;;;;;;5069117;28;20055;-65
2022/07/06 06:49:20;;;;;;;2.58;0.80;;;15.20;99.90;;;;;;5069049;28;20037;-64
2022/07/06 06:51:45;;;;;;;2.28;0.30;;;15.10;99.90;;;;;;5069536;28;20048;-64
2022/07/06 06:54:12;;;;;;;4.15;1.10;;;15.00;99.90;;;;;;5068435;28;20049;-64
2022/07/06 06:56:37;;;;;;;4.45;1.08;;;15.00;99.90;;;;;;5068427;28;20044;-65
2022/07/06 06:59:03;;;;;;;3.75;1.00;;;14.90;99.90;;;;;;5068403;28;20068;-65
2022/07/06 07:01:29;;;;;;;1.65;0.65;;;14.90;99.90;;;;;;5067853;28;20056;-65
2022/07/06 07:03:55;;;;;;;4.25;0.82;;;15.00;99.90;;;;;;5067938;28;20049;-65
2022/07/06 07:06:21;;;;;;;3.35;0.88;;;15.10;99.90;;;;;;5069566;28;20045;-65
2022/07/06 07:08:47;;;;;;;2.45;0.60;;;15.10;99.90;;;;;;5068730;28;20454;-65
2022/07/06 07:11:13;;;;;;;1.67;0.68;;;15.40;99.90;;;;;;5068708;28;20048;-65
2022/07/06 07:13:38;;;;;;;7.75;1.23;;;15.30;99.90;;;;;;5050646;28;20048;-65
2022/07/06 07:16:05;;;;;;;3.03;0.65;;;15.50;99.90;;;;;;5068601;28;20052;-65
2022/07/06 07:18:31;;;;;;;2.10;0.98;;;15.60;99.90;;;;;;5068142;28;20052;-65
2022/07/06 07:20:56;;;;;;;2.55;0.60;;;15.70;99.90;;;;;;5068375;28;20036;-65
2022/07/06 07:23:22;;;;;;;2.13;0.70;;;15.80;99.90;;;;;;5068739;28;20048;-65
2022/07/06 07:25:48;;;;;;;1.48;0.38;;;16.00;99.90;;;;;;5067660;28;20080;-65
2022/07/06 07:28:13;;;;;;;3.00;1.10;;;16.20;99.90;;;;;;5069355;28;20053;-65
2022/07/06 07:30:39;;;;;;;1.90;0.50;;;16.30;99.90;;;;;;5068166;28;20055;-65
2022/07/06 07:33:04;;;;;;;4.22;0.85;;;16.30;99.90;;;;;;5066115;28;20056;-65
2022/07/06 07:35:30;;;;;;;2.30;0.57;;;16.30;99.90;;;;;;5068347;28;20049;-65
2022/07/06 07:37:55;;;;;;;1.77;0.40;;;16.40;99.90;;;;;;5067425;28;20043;-65
2022/07/06 07:40:21;;;;;;;4.07;0.63;;;16.50;99.90;;;;;;5068436;28;20086;-64
2022/07/06 07:42:47;;;;;;;5.95;0.98;;;16.60;99.90;;;;;;5067913;28;20545;-65
2022/07/06 07:45:13;;;;;;;3.83;0.80;;;16.70;99.90;;;;;;5067950;28;20048;-65
2022/07/06 07:47:39;;;;;;;2.50;0.52;;;16.90;99.90;;;;;;5067995;28;20181;-65
2022/07/06 07:50:05;;;;;;;1.73;0.35;;;16.90;99.90;;;;;;5068114;28;20116;-65
2022/07/06 07:52:31;;;;;;;6.60;0.63;;;17.00;99.90;;;;;;5067748;28;20059;-65
2022/07/06 07:54:57;;;;;;;2.55;0.38;;;17.10;99.90;;;;;;5066821;28;20041;-65
2022/07/06 07:57:22;;;;;;;0.85;0.32;;;17.00;99.90;;;;;;5067945;28;20664;-65
2022/07/06 07:59:48;;;;;;;3.38;0.43;;;16.90;99.90;;;;;;5066855;28;20492;-65
2022/07/06 08:02:14;;;;;;;2.30;0.43;;;16.80;99.90;;;;;;5068424;28;20372;-65
2022/07/06 08:04:40;;;;;;;3.78;1.05;;;16.70;99.90;;;;;;5067857;28;20037;-65
2022/07/06 08:07:06;;;;;;;1.95;0.50;;;16.70;99.90;;;;;;5066890;28;20044;-65
2022/07/06 08:09:31;;;;;;;1.60;0.70;;;16.70;99.90;;;;;;5068082;28;20064;-65
2022/07/06 08:11:58;;;;;;;2.25;0.45;;;16.80;99.90;;;;;;5067563;28;20044;-65
2022/07/06 08:14:25;;;;;;;1.35;0.60;;;16.80;99.90;;;;;;5067434;28;20123;-65
2022/07/06 08:16:50;;;;;;;1.98;0.52;;;16.90;99.90;;;;;;5067063;28;20153;-65
2022/07/06 08:19:17;;;;;;;4.80;0.82;;;17.00;99.90;;;;;;5068053;28;20162;-65
2022/07/06 08:21:43;;;;;;;2.17;0.40;;;17.00;99.90;;;;;;5067553;28;20137;-65
2022/07/06 08:24:09;;;;;;;1.90;0.43;;;17.10;99.90;;;;;;5067029;28;20186;-65
2022/07/06 08:26:35;;;;;;;2.15;0.60;;;17.20;99.90;;;;;;5067664;28;20142;-65
2022/07/06 08:29:00;;;;;;;2.38;0.38;;;17.20;99.90;;;;;;5066139;28;20403;-65
2022/07/06 08:31:29;;;;;;;2.78;0.50;;;17.30;99.90;;;;;;5067443;28;20045;-65
2022/07/06 08:33:55;;;;;;;6.22;0.45;;;17.30;99.90;;;;;;5067056;28;20411;-65
2022/07/06 08:36:22;;;;;;;4.03;0.50;;;17.30;99.90;;;;;;5067025;28;20037;-65
2022/07/06 08:38:48;;;;;;;1.92;0.30;;;17.30;99.90;;;;;;5066984;28;20533;-64
2022/07/06 08:41:20;;;;;;;1.95;0.50;;;17.30;99.90;;;;;;5066947;28;20446;-64
2022/07/06 08:43:46;;;;;;;2.30;0.30;;;17.30;99.90;;;;;;5067123;28;20051;-65
2022/07/06 08:46:14;;;;;;;2.53;0.50;;;17.20;99.90;;;;;;5067750;28;20547;-65
2022/07/06 08:48:40;;;;;;;1.70;0.40;;;17.00;99.90;;;;;;5065104;28;20484;-65
2022/07/06 08:51:06;;;;;;;2.72;0.57;;;16.90;99.90;;;;;;5066729;28;20414;-65
2022/07/06 08:53:33;;;;;;;1.25;0.47;;;16.80;99.90;;;;;;5067021;28;20132;-64
2022/07/06 08:56:01;;;;;;;1.65;0.40;;;16.80;99.90;;;;;;5065787;28;20041;-64
2022/07/06 08:58:27;;;;;;;3.63;0.60;;;16.80;99.90;;;;;;5065305;28;20191;-65
2022/07/06 09:00:55;;;;;;;1.38;0.45;;;16.80;99.90;;;;;;5066725;28;20258;-65
2022/07/06 09:03:21;;;;;;;5.40;0.68;;;16.90;99.90;;;;;;5065786;28;20045;-65
2022/07/06 09:05:47;;;;;;;1.23;0.30;;;17.00;99.90;;;;;;5066944;28;20051;-65
2022/07/06 09:08:13;;;;;;;2.47;0.50;;;17.20;99.90;;;;;;5067314;28;20143;-64
2022/07/06 09:10:39;;;;;;;1.30;0.35;;;17.30;99.90;;;;;;5065635;28;20048;-65
2022/07/06 09:13:06;;;;;;;3.88;0.50;;;17.30;99.90;;;;;;5066189;28;20099;-65
2022/07/06 09:15:33;;;;;;;2.40;0.63;;;17.30;99.90;;;;;;5066632;28;20048;-65
2022/07/06 09:17:59;;;;;;;2.15;0.55;;;17.30;99.90;;;;;;5065467;28;20040;-65
2022/07/06 09:20:25;;;;;;;2.92;0.75;;;17.50;99.90;;;;;;5066691;28;20525;-64
2022/07/06 09:22:53;;;;;;;4.03;0.70;;;17.70;99.90;;;;;;5066052;28;20040;-65
2022/07/06 09:25:19;;;;;;;1.25;0.57;;;17.90;99.90;;;;;;5065580;28;20041;-65
2022/07/06 09:27:47;;;;;;;3.60;0.50;;;18.10;99.90;;;;;;5067295;28;20071;-65
2022/07/06 09:30:14;;;;;;;2.28;0.93;;;18.10;99.90;;;;;;5066889;28;20091;-66
2022/07/06 09:32:45;;;;;;;1.65;0.40;;;18.00;99.90;;;;;;5066140;28;20052;-65
2022/07/06 09:35:23;;;;;;;2.58;0.68;;;18.00;99.90;;;;;;5066159;28;20048;-65
2022/07/06 09:38:09;;;;;;;1.00;0.55;;;18.00;99.90;;;;;;5065329;28;20053;-65
2022/07/06 09:40:40;;;;;;;1.10;0.40;;;17.90;99.90;;;;;;5066391;28;20044;-65
2022/07/06 09:43:19;;;;;;;2.77;0.63;;;17.90;99.90;;;;;;5065958;28;20384;-65
2022/07/06 09:45:55;;;;;;;3.15;0.65;;;18.00;99.90;;;;;;5065613;28;20816;-65
2022/07/06 09:48:23;;;;;;;3.22;0.47;;;18.00;99.90;;;;;;5066043;28;20470;-65
2022/07/06 09:50:53;;;;;;;1.23;0.30;;;18.00;99.90;;;;;;5064431;28;20080;-65
2022/07/06 09:53:20;;;;;;;2.63;1.08;;;17.90;99.90;;;;;;5065420;28;20343;-65
2022/07/06 09:55:48;;;;;;;1.60;1.17;;;17.80;99.90;;;;;;5065926;28;20067;-65
2022/07/06 09:58:15;;;;;;;1.58;0.55;;;17.70;99.90;;;;;;5066410;28;20056;-65
2022/07/06 10:00:41;;;;;;;2.03;0.50;;;17.70;99.90;;;;;;5065178;28;20514;-65
2022/07/06 10:03:08;;;;;;;4.32;0.80;;;17.70;99.90;;;;;;5065941;28;20127;-64
2022/07/06 10:05:37;;;;;;;1.75;0.52;;;17.80;99.90;;;;;;5063828;28;20060;-65
2022/07/06 10:08:05;;;;;;;1.25;0.45;;;17.90;99.90;;;;;;5065583;28;20044;-65
2022/07/06 10:10:31;;;;;;;1.60;0.38;;;18.10;99.90;;;;;;5065932;28;20372;-65
2022/07/06 10:12:58;;;;;;;3.22;0.40;;;18.30;99.90;;;;;;5064648;28;20130;-65
2022/07/06 10:15:25;;;;;;;5.53;0.90;;;18.50;99.90;;;;;;5066260;28;20048;-65
2022/07/06 10:17:52;;;;;;;3.35;0.68;;;18.60;99.90;;;;;;5068013;28;20440;-65
2022/07/06 10:20:19;;;;;;;4.05;0.95;;;18.70;99.90;;;;;;5071927;28;20094;-65
2022/07/06 10:22:47;;;;;;;1.20;0.40;;;18.80;99.90;;;;;;5072790;28;20410;-65
2022/07/06 10:25:17;;;;;;;1.98;0.43;;;19.00;99.90;;;;;;5072840;28;20048;-65
2022/07/06 10:27:44;;;;;;;0.90;0.40;;;19.00;99.90;;;;;;5072152;28;20102;-65
2022/07/06 10:30:10;;;;;;;3.55;0.50;;;19.10;99.90;;;;;;5071632;28;20044;-65
2022/07/06 10:32:38;;;;;;;2.22;0.80;;;19.20;99.90;;;;;;5072035;28;20522;-65
2022/07/06 10:35:05;;;;;;;1.65;0.60;;;19.20;99.90;;;;;;5071102;28;20044;-65
2022/07/06 10:37:32;;;;;;;1.98;0.40;;;19.30;99.90;;;;;;5072121;28;20510;-65
2022/07/06 10:42:59;;;;;;;2.30;0.80;;;19.50;99.90;;;;;;5071980;28;20084;-65
2022/07/06 10:45:28;;;;;;;1.25;0.47;;;19.70;99.90;;;;;;5072335;28;20048;-65
2022/07/06 10:48:12;;;;;;;5.18;0.75;;;19.60;99.90;;;;;;5071205;28;20055;-65
2022/07/06 10:50:39;;;;;;;5.28;0.73;;;19.60;99.90;;;;;;5072088;28;20507;-65
2022/07/06 10:53:16;;;;;;;1.30;0.30;;;19.70;99.90;;;;;;5071518;28;20036;-65
2022/07/06 10:55:47;;;;;;;2.83;0.63;;;19.80;99.90;;;;;;5071549;28;20040;-65
2022/07/06 10:58:14;;;;;;;1.88;0.65;;;19.80;99.90;;;;;;5072761;28;20122;-65
2022/07/06 11:00:54;;;;;;;3.33;0.47;;;19.90;99.90;;;;;;5071726;28;20605;-65
2022/07/06 11:03:36;;;;;;;0.47;0.25;;;19.90;99.90;;;;;;5071107;28;20067;-65
2022/07/06 11:06:07;;;;;;;0.98;0.52;;;20.00;99.90;;;;;;5071994;28;20045;-65
2022/07/06 11:08:48;;;;;;;2.05;0.50;;;20.00;99.90;;;;;;5072421;28;20048;-65
2022/07/06 11:11:23;;;;;;;0.55;0.30;;;20.00;99.90;;;;;;5072644;28;20051;-66
2022/07/06 11:13:59;;;;;;;1.33;0.50;;;20.00;99.90;;;;;;5070248;28;20052;-65
2022/07/06 11:16:26;;;;;;;1.63;0.30;;;20.20;99.90;;;;;;5071578;28;20094;-65
2022/07/06 11:19:01;;;;;;;0.75;0.30;;;20.40;99.90;;;;;;5072153;28;20051;-65
2022/07/06 11:21:47;;;;;;;2.10;0.60;;;20.40;99.90;;;;;;5072014;28;20044;-65
2022/07/06 11:24:24;;;;;;;2.15;0.57;;;20.20;99.90;;;;;;5071788;28;20044;-65
2022/07/06 11:26:51;;;;;;;2.90;0.40;;;20.10;99.90;;;;;;5071232;28;20041;-65
2022/07/06 11:29:23;;;;;;;0.90;0.50;;;20.00;99.90;;;;;;5069459;28;20503;-65
2022/07/06 11:31:52;;;;;;;1.88;0.50;;;20.00;99.90;;;;;;5066377;28;20044;-65
2022/07/06 11:34:29;;;;;;;1.25;0.45;;;20.10;99.90;;;;;;5068704;28;20486;-65
2022/07/06 11:36:59;;;;;;;1.52;0.55;;;20.20;99.90;;;;;;5067457;28;20048;-65
2022/07/06 11:39:32;;;;;;;2.25;0.77;;;20.40;99.90;;;;;;5068796;28;20037;-65
2022/07/06 11:42:00;;;;;;;2.00;0.75;;;20.50;99.90;;;;;;5068237;28;20098;-65
2022/07/06 11:44:26;;;;;;;2.25;0.60;;;20.50;99.90;;;;;;5067681;28;20036;-65
2022/07/06 11:46:52;;;;;;;5.50;0.85;;;20.60;99.90;;;;;;5068119;28;20049;-65
2022/07/06 11:49:18;;;;;;;7.45;1.23;;;21.00;99.90;;;;;;5066961;28;20048;-64
2022/07/06 11:51:45;;;;;;;1.50;0.60;;;20.80;99.90;;;;;;5049965;28;20052;-65
2022/07/06 11:54:16;;;;;;;2.08;0.50;;;20.60;99.90;;;;;;5067629;28;20048;-65
2022/07/06 11:56:54;;;;;;;1.33;0.45;;;20.50;99.90;;;;;;5068850;28;20178;-65
2022/07/06 11:59:27;;;;;;;1.52;0.65;;;20.30;99.90;;;;;;5065952;28;20053;-65
2022/07/06 12:02:03;;;;;;;2.50;0.57;;;20.20;99.90;;;;;;5067738;28;20048;-65
2022/07/06 12:04:30;;;;;;;1.20;0.60;;;20.10;99.90;;;;;;5067019;28;20087;-65
2022/07/06 12:07:01;;;;;;;2.47;0.60;;;20.10;99.90;;;;;;5067185;28;20463;-65
2022/07/06 12:09:36;;;;;;;2.25;0.35;;;20.10;99.90;;;;;;5068110;28;20469;-65
2022/07/06 12:12:02;;;;;;;3.17;0.52;;;20.00;99.90;;;;;;5066511;28;20407;-65
2022/07/06 12:14:33;;;;;;;0.60;0.40;;;20.00;99.90;;;;;;5067888;28;20102;-65
2022/07/06 12:17:15;;;;;;;2.28;0.60;;;20.10;99.90;;;;;;5067850;28;20447;-65
2022/07/06 12:19:41;;;;;;;1.60;0.50;;;20.20;99.90;;;;;;5067204;28;20049;-65
2022/07/06 12:22:08;;;;;;;1.45;0.63;;;20.20;99.90;;;;;;5067375;28;20585;-66
2022/07/06 12:24:37;;;;;;;0.88;0.50;;;20.30;99.90;;;;;;5067770;28;20076;-65
2022/07/06 12:27:16;;;;;;;2.20;0.52;;;20.30;99.90;;;;;;5067121;28;20094;-66
2022/07/06 12:29:42;;;;;;;1.17;0.55;;;20.50;99.90;;;;;;5068316;28;20458;-65
2022/07/06 12:32:26;;;;;;;0.43;0.30;;;20.60;99.90;;;;;;5067385;28;20045;-65
2022/07/06 12:35:08;;;;;;;1.92;0.82;;;20.70;99.90;;;;;;5068171;28;20430;-65
2022/07/06 12:37:35;;;;;;;5.32;0.65;;;20.60;99.90;;;;;;5069335;28;20056;-65
2022/07/06 12:40:01;;;;;;;1.65;0.50;;;20.50;99.90;;;;;;5068570;28;20480;-65
2022/07/06 12:42:28;;;;;;;3.70;1.05;;;20.40;99.90;;;;;;5066501;28;20075;-65
2022/07/06 12:44:53;;;;;;;2.33;0.52;;;20.30;99.90;;;;;;5067008;28;20437;-65
2022/07/06 12:47:23;;;;;;;5.35;0.70;;;20.40;99.90;;;;;;5066542;28;20078;-65
2022/07/06 12:50:03;;;;;;;2.00;0.50;;;20.40;99.90;;;;;;5066908;28;20548;-65
2022/07/06 12:52:28;;;;;;;2.72;0.47;;;20.30;99.90;;;;;;5067405;28;20063;-65
2022/07/06 12:54:54;;;;;;;2.85;0.60;;;20.30;99.90;;;;;;5066662;28;20048;-65
2022/07/06 12:57:25;;;;;;;1.00;0.40;;;20.20;99.90;;;;;;5067537;28;20041;-65
2022/07/06 12:59:54;;;;;;;2.10;0.60;;;20.10;99.90;;;;;;5067230;28;20056;-66